sensor_id;sensor_type;location;lat;lon;timestamp;pressure;altitude;pressure_sealevel;temperature;humidity
10958;BME280;5531;42.570;23.676;2023-04-08T00:00:07;92013.38;;;2.68;86.61
10958;BME280;5531;42.570;23.676;2023-04-08T00:02:36;92016.94;;;2.67;86.92
10958;BME280;5531;42.570;23.676;2023-04-08T00:05:09;92012.13;;;2.72;87.24
10958;BME280;5531;42.570;23.676;2023-04-08T00:07:38;92006.97;;;2.72;87.79
10958;BME280;5531;42.570;23.676;2023-04-08T00:10:08;92003.53;;;2.72;88.34
10958;BME280;5531;42.570;23.676;2023-04-08T00:12:37;92012.28;;;2.71;87.73
10958;BME280;5531;42.570;23.676;2023-04-08T00:15:06;92005.31;;;2.71;87.38
10958;BME280;5531;42.570;23.676;2023-04-08T00:17:35;92005.69;;;2.77;87.17
10958;BME280;5531;42.570;23.676;2023-04-08T00:20:08;92012.50;;;2.78;87.74
10958;BME280;5531;42.570;23.676;2023-04-08T00:22:37;92004.56;;;2.79;87.57
10958;BME280;5531;42.570;23.676;2023-04-08T00:25:07;92012.19;;;2.81;87.64
10958;BME280;5531;42.570;23.676;2023-04-08T00:27:36;92012.94;;;2.73;87.01
10958;BME280;5531;42.570;23.676;2023-04-08T00:30:06;92013.28;;;2.78;87.33
10958;BME280;5531;42.570;23.676;2023-04-08T00:32:36;92011.16;;;2.73;87.93
10958;BME280;5531;42.570;23.676;2023-04-08T00:35:08;92020.19;;;2.69;87.95
10958;BME280;5531;42.570;23.676;2023-04-08T00:37:37;92008.72;;;2.72;88.09
10958;BME280;5531;42.570;23.676;2023-04-08T00:40:08;92015.38;;;2.74;87.25
10958;BME280;5531;42.570;23.676;2023-04-08T00:42:37;92008.63;;;2.82;87.71
10958;BME280;5531;42.570;23.676;2023-04-08T00:45:08;92007.22;;;2.87;88.76
10958;BME280;5531;42.570;23.676;2023-04-08T00:47:37;92006.63;;;2.93;87.31
10958;BME280;5531;42.570;23.676;2023-04-08T00:50:10;92006.53;;;3.03;85.68
10958;BME280;5531;42.570;23.676;2023-04-08T00:52:39;92013.25;;;2.96;85.38
10958;BME280;5531;42.570;23.676;2023-04-08T00:55:08;92007.28;;;2.96;85.55
10958;BME280;5531;42.570;23.676;2023-04-08T00:57:37;92015.84;;;2.96;87.22
10958;BME280;5531;42.570;23.676;2023-04-08T01:00:08;92013.91;;;2.98;87.20
10958;BME280;5531;42.570;23.676;2023-04-08T01:02:42;92015.06;;;2.78;87.87
10958;BME280;5531;42.570;23.676;2023-04-08T01:05:34;92014.88;;;2.53;88.54
10958;BME280;5531;42.570;23.676;2023-04-08T01:08:06;92021.81;;;2.34;89.89
10958;BME280;5531;42.570;23.676;2023-04-08T01:10:37;92013.91;;;2.18;90.24
10958;BME280;5531;42.570;23.676;2023-04-08T01:13:12;92019.28;;;2.07;90.53
10958;BME280;5531;42.570;23.676;2023-04-08T01:15:43;92017.38;;;2.09;90.95
10958;BME280;5531;42.570;23.676;2023-04-08T01:18:13;92018.19;;;2.09;90.52
10958;BME280;5531;42.570;23.676;2023-04-08T01:20:46;92011.59;;;2.15;90.16
10958;BME280;5531;42.570;23.676;2023-04-08T01:23:22;92017.53;;;2.25;89.82
10958;BME280;5531;42.570;23.676;2023-04-08T01:25:56;92010.72;;;2.24;89.70
10958;BME280;5531;42.570;23.676;2023-04-08T01:28:28;92017.25;;;2.28;90.02
10958;BME280;5531;42.570;23.676;2023-04-08T01:30:59;92012.06;;;2.28;89.69
10958;BME280;5531;42.570;23.676;2023-04-08T01:33:29;92021.81;;;2.34;89.52
10958;BME280;5531;42.570;23.676;2023-04-08T01:35:59;92015.97;;;2.50;88.99
10958;BME280;5531;42.570;23.676;2023-04-08T01:38:29;92022.72;;;2.61;88.95
10958;BME280;5531;42.570;23.676;2023-04-08T01:41:03;92019.53;;;2.67;88.41
10958;BME280;5531;42.570;23.676;2023-04-08T01:43:34;92030.03;;;2.66;87.97
10958;BME280;5531;42.570;23.676;2023-04-08T01:46:04;92023.06;;;2.66;87.31
10958;BME280;5531;42.570;23.676;2023-04-08T01:48:34;92020.47;;;2.66;88.12
10958;BME280;5531;42.570;23.676;2023-04-08T01:51:04;92024.53;;;2.69;88.37
10958;BME280;5531;42.570;23.676;2023-04-08T01:53:34;92027.94;;;2.69;88.15
10958;BME280;5531;42.570;23.676;2023-04-08T01:56:10;92031.19;;;2.71;88.44
10958;BME280;5531;42.570;23.676;2023-04-08T01:58:41;92030.31;;;2.63;88.64
10958;BME280;5531;42.570;23.676;2023-04-08T02:01:16;92040.81;;;2.61;89.44
10958;BME280;5531;42.570;23.676;2023-04-08T02:03:46;92041.25;;;2.56;89.24
10958;BME280;5531;42.570;23.676;2023-04-08T02:06:16;92040.38;;;2.66;88.94
10958;BME280;5531;42.570;23.676;2023-04-08T02:08:45;92045.63;;;2.56;89.21
10958;BME280;5531;42.570;23.676;2023-04-08T02:11:17;92046.78;;;2.44;90.33
10958;BME280;5531;42.570;23.676;2023-04-08T02:13:46;92057.41;;;2.41;89.91
10958;BME280;5531;42.570;23.676;2023-04-08T02:16:20;92062.59;;;2.41;90.08
10958;BME280;5531;42.570;23.676;2023-04-08T02:18:55;92054.22;;;2.29;91.32
10958;BME280;5531;42.570;23.676;2023-04-08T02:21:32;92051.72;;;2.37;91.89
10958;BME280;5531;42.570;23.676;2023-04-08T02:24:05;92050.94;;;2.36;91.08
10958;BME280;5531;42.570;23.676;2023-04-08T02:26:39;92057.56;;;2.39;90.88
10958;BME280;5531;42.570;23.676;2023-04-08T02:29:11;92054.16;;;2.38;91.51
10958;BME280;5531;42.570;23.676;2023-04-08T02:31:41;92054.53;;;2.44;91.00
10958;BME280;5531;42.570;23.676;2023-04-08T02:34:11;92051.00;;;2.45;90.83
10958;BME280;5531;42.570;23.676;2023-04-08T02:36:41;92049.50;;;2.42;90.80
10958;BME280;5531;42.570;23.676;2023-04-08T02:39:12;92043.41;;;2.43;91.38
10958;BME280;5531;42.570;23.676;2023-04-08T02:41:43;92039.09;;;2.34;91.01
10958;BME280;5531;42.570;23.676;2023-04-08T02:44:12;92041.97;;;2.31;91.13
10958;BME280;5531;42.570;23.676;2023-04-08T02:46:41;92036.88;;;2.21;92.06
10958;BME280;5531;42.570;23.676;2023-04-08T02:49:10;92041.38;;;2.19;92.37
10958;BME280;5531;42.570;23.676;2023-04-08T02:51:39;92043.22;;;2.09;93.25
10958;BME280;5531;42.570;23.676;2023-04-08T02:54:08;92045.25;;;2.05;92.55
10958;BME280;5531;42.570;23.676;2023-04-08T02:56:37;92040.97;;;1.96;93.22
10958;BME280;5531;42.570;23.676;2023-04-08T02:59:09;92042.16;;;2.01;94.19
10958;BME280;5531;42.570;23.676;2023-04-08T03:01:38;92040.53;;;2.00;94.22
10958;BME280;5531;42.570;23.676;2023-04-08T03:04:07;92045.16;;;1.97;94.49
10958;BME280;5531;42.570;23.676;2023-04-08T03:06:36;92039.34;;;1.95;94.64
10958;BME280;5531;42.570;23.676;2023-04-08T03:09:05;92043.47;;;1.88;95.02
10958;BME280;5531;42.570;23.676;2023-04-08T03:11:34;92040.59;;;1.91;95.53
10958;BME280;5531;42.570;23.676;2023-04-08T03:14:03;92041.16;;;1.85;95.86
10958;BME280;5531;42.570;23.676;2023-04-08T03:16:34;92042.50;;;1.89;96.22
10958;BME280;5531;42.570;23.676;2023-04-08T03:19:03;92040.47;;;1.82;95.58
10958;BME280;5531;42.570;23.676;2023-04-08T03:21:32;92036.94;;;1.83;96.18
10958;BME280;5531;42.570;23.676;2023-04-08T03:24:02;92036.16;;;1.83;96.41
10958;BME280;5531;42.570;23.676;2023-04-08T03:26:31;92040.34;;;1.84;96.26
10958;BME280;5531;42.570;23.676;2023-04-08T03:29:00;92038.53;;;1.94;96.36
10958;BME280;5531;42.570;23.676;2023-04-08T03:31:29;92047.31;;;2.01;95.81
10958;BME280;5531;42.570;23.676;2023-04-08T03:34:00;92042.00;;;2.03;95.51
10958;BME280;5531;42.570;23.676;2023-04-08T03:36:29;92042.66;;;2.05;96.19
10958;BME280;5531;42.570;23.676;2023-04-08T03:38:58;92028.88;;;2.14;95.37
10958;BME280;5531;42.570;23.676;2023-04-08T03:41:28;92038.78;;;2.19;94.62
10958;BME280;5531;42.570;23.676;2023-04-08T03:43:57;92046.63;;;2.27;95.09
10958;BME280;5531;42.570;23.676;2023-04-08T03:46:26;92041.09;;;2.22;96.09
10958;BME280;5531;42.570;23.676;2023-04-08T03:48:55;92041.47;;;2.27;95.14
10958;BME280;5531;42.570;23.676;2023-04-08T03:51:27;92043.31;;;2.35;95.33
10958;BME280;5531;42.570;23.676;2023-04-08T03:53:56;92048.34;;;2.36;95.79
10958;BME280;5531;42.570;23.676;2023-04-08T03:56:25;92049.16;;;2.37;96.31
10958;BME280;5531;42.570;23.676;2023-04-08T03:58:54;92049.50;;;2.42;96.14
10958;BME280;5531;42.570;23.676;2023-04-08T04:01:23;92049.59;;;2.50;96.89
10958;BME280;5531;42.570;23.676;2023-04-08T04:03:52;92050.94;;;2.54;96.42
10958;BME280;5531;42.570;23.676;2023-04-08T04:06:21;92049.50;;;2.42;97.48
10958;BME280;5531;42.570;23.676;2023-04-08T04:08:55;92053.88;;;2.42;98.15
10958;BME280;5531;42.570;23.676;2023-04-08T04:11:24;92049.28;;;2.35;98.93
10958;BME280;5531;42.570;23.676;2023-04-08T04:13:53;92047.00;;;2.32;99.28
10958;BME280;5531;42.570;23.676;2023-04-08T04:16:22;92042.25;;;2.28;99.06
10958;BME280;5531;42.570;23.676;2023-04-08T04:18:51;92046.34;;;2.30;99.99
10958;BME280;5531;42.570;23.676;2023-04-08T04:21:20;92048.50;;;2.35;100.00
10958;BME280;5531;42.570;23.676;2023-04-08T04:23:49;92051.59;;;2.38;100.00
10958;BME280;5531;42.570;23.676;2023-04-08T04:26:21;92051.59;;;2.38;100.00
10958;BME280;5531;42.570;23.676;2023-04-08T04:28:50;92058.22;;;2.41;100.00
10958;BME280;5531;42.570;23.676;2023-04-08T04:31:20;92050.59;;;2.39;100.00
10958;BME280;5531;42.570;23.676;2023-04-08T04:33:51;92063.25;;;2.43;100.00
10958;BME280;5531;42.570;23.676;2023-04-08T04:36:20;92059.41;;;2.47;100.00
10958;BME280;5531;42.570;23.676;2023-04-08T04:38:49;92059.28;;;2.48;100.00
10958;BME280;5531;42.570;23.676;2023-04-08T04:41:21;92061.72;;;2.50;100.00
10958;BME280;5531;42.570;23.676;2023-04-08T04:43:50;92063.25;;;2.43;100.00
10958;BME280;5531;42.570;23.676;2023-04-08T04:46:19;92064.59;;;2.47;100.00
10958;BME280;5531;42.570;23.676;2023-04-08T04:48:48;92060.38;;;2.46;100.00
10958;BME280;5531;42.570;23.676;2023-04-08T04:51:17;92062.22;;;2.53;100.00
10958;BME280;5531;42.570;23.676;2023-04-08T04:53:46;92063.88;;;2.54;100.00
10958;BME280;5531;42.570;23.676;2023-04-08T04:56:15;92061.56;;;2.51;100.00
10958;BME280;5531;42.570;23.676;2023-04-08T04:58:48;92070.63;;;2.55;100.00
10958;BME280;5531;42.570;23.676;2023-04-08T05:01:17;92065.41;;;2.65;100.00
10958;BME280;5531;42.570;23.676;2023-04-08T05:03:47;92075.31;;;2.70;100.00
10958;BME280;5531;42.570;23.676;2023-04-08T05:06:16;92063.50;;;2.67;100.00
10958;BME280;5531;42.570;23.676;2023-04-08T05:08:45;92064.81;;;2.71;100.00
10958;BME280;5531;42.570;23.676;2023-04-08T05:11:14;92068.75;;;2.75;100.00
10958;BME280;5531;42.570;23.676;2023-04-08T05:13:43;92062.72;;;2.75;100.00
10958;BME280;5531;42.570;23.676;2023-04-08T05:16:15;92065.84;;;2.79;100.00
10958;BME280;5531;42.570;23.676;2023-04-08T05:18:44;92061.78;;;2.76;100.00
10958;BME280;5531;42.570;23.676;2023-04-08T05:21:13;92065.16;;;2.77;100.00
10958;BME280;5531;42.570;23.676;2023-04-08T05:23:42;92063.34;;;2.87;100.00
10958;BME280;5531;42.570;23.676;2023-04-08T05:26:11;92068.13;;;2.82;100.00
10958;BME280;5531;42.570;23.676;2023-04-08T05:28:40;92052.53;;;2.91;100.00
10958;BME280;5531;42.570;23.676;2023-04-08T05:31:09;92052.72;;;2.98;100.00
10958;BME280;5531;42.570;23.676;2023-04-08T05:33:41;92063.75;;;3.00;100.00
10958;BME280;5531;42.570;23.676;2023-04-08T05:36:10;92057.66;;;3.09;100.00
10958;BME280;5531;42.570;23.676;2023-04-08T05:38:39;92049.59;;;3.12;100.00
10958;BME280;5531;42.570;23.676;2023-04-08T05:41:09;92057.38;;;3.12;100.00
10958;BME280;5531;42.570;23.676;2023-04-08T05:43:38;92063.22;;;3.15;100.00
10958;BME280;5531;42.570;23.676;2023-04-08T05:46:08;92054.03;;;3.20;100.00
10958;BME280;5531;42.570;23.676;2023-04-08T05:48:37;92055.53;;;3.23;100.00
10958;BME280;5531;42.570;23.676;2023-04-08T05:51:12;92058.25;;;3.21;100.00
10958;BME280;5531;42.570;23.676;2023-04-08T05:53:44;92068.47;;;3.23;100.00
10958;BME280;5531;42.570;23.676;2023-04-08T05:56:13;92058.59;;;3.26;100.00
10958;BME280;5531;42.570;23.676;2023-04-08T05:58:42;92058.66;;;3.35;100.00
10958;BME280;5531;42.570;23.676;2023-04-08T06:01:11;92056.63;;;3.46;100.00
10958;BME280;5531;42.570;23.676;2023-04-08T06:03:40;92063.03;;;3.60;100.00
10958;BME280;5531;42.570;23.676;2023-04-08T06:06:12;92061.25;;;3.61;100.00
10958;BME280;5531;42.570;23.676;2023-04-08T06:08:41;92051.56;;;3.71;100.00
10958;BME280;5531;42.570;23.676;2023-04-08T06:11:10;92053.47;;;3.95;100.00
10958;BME280;5531;42.570;23.676;2023-04-08T06:13:39;92055.72;;;3.90;100.00
10958;BME280;5531;42.570;23.676;2023-04-08T06:16:12;92057.69;;;3.96;100.00
10958;BME280;5531;42.570;23.676;2023-04-08T06:18:42;92052.31;;;3.90;100.00
10958;BME280;5531;42.570;23.676;2023-04-08T06:21:13;92061.09;;;3.97;100.00
10958;BME280;5531;42.570;23.676;2023-04-08T06:23:42;92060.28;;;3.96;100.00
10958;BME280;5531;42.570;23.676;2023-04-08T06:26:11;92069.81;;;3.96;100.00
10958;BME280;5531;42.570;23.676;2023-04-08T06:28:40;92061.22;;;3.95;100.00
10958;BME280;5531;42.570;23.676;2023-04-08T06:31:10;92062.19;;;3.94;100.00
10958;BME280;5531;42.570;23.676;2023-04-08T06:33:38;92065.69;;;4.11;100.00
10958;BME280;5531;42.570;23.676;2023-04-08T06:36:08;92068.47;;;4.18;100.00
10958;BME280;5531;42.570;23.676;2023-04-08T06:38:40;92067.34;;;4.20;100.00
10958;BME280;5531;42.570;23.676;2023-04-08T06:41:09;92069.44;;;4.25;100.00
10958;BME280;5531;42.570;23.676;2023-04-08T06:43:38;92068.28;;;4.19;100.00
10958;BME280;5531;42.570;23.676;2023-04-08T06:46:07;92072.53;;;4.20;100.00
10958;BME280;5531;42.570;23.676;2023-04-08T06:48:36;92068.47;;;4.26;100.00
10958;BME280;5531;42.570;23.676;2023-04-08T06:51:05;92067.38;;;4.37;100.00
10958;BME280;5531;42.570;23.676;2023-04-08T06:53:34;92058.81;;;4.53;100.00
10958;BME280;5531;42.570;23.676;2023-04-08T06:56:06;92073.28;;;4.72;100.00
10958;BME280;5531;42.570;23.676;2023-04-08T06:58:36;92075.72;;;4.82;100.00
10958;BME280;5531;42.570;23.676;2023-04-08T07:01:05;92072.19;;;4.83;100.00
10958;BME280;5531;42.570;23.676;2023-04-08T07:03:34;92070.88;;;4.95;100.00
10958;BME280;5531;42.570;23.676;2023-04-08T07:06:03;92073.00;;;5.00;100.00
10958;BME280;5531;42.570;23.676;2023-04-08T07:08:32;92078.97;;;4.92;100.00
10958;BME280;5531;42.570;23.676;2023-04-08T07:11:02;92074.28;;;4.95;100.00
10958;BME280;5531;42.570;23.676;2023-04-08T07:13:34;92076.56;;;5.07;100.00
10958;BME280;5531;42.570;23.676;2023-04-08T07:16:03;92079.34;;;5.22;100.00
10958;BME280;5531;42.570;23.676;2023-04-08T07:18:32;92093.44;;;5.36;100.00
10958;BME280;5531;42.570;23.676;2023-04-08T07:21:03;92097.16;;;5.58;99.50
10958;BME280;5531;42.570;23.676;2023-04-08T07:23:32;92093.72;;;5.65;99.29
10958;BME280;5531;42.570;23.676;2023-04-08T07:26:01;92100.09;;;5.46;99.38
10958;BME280;5531;42.570;23.676;2023-04-08T07:28:33;92096.69;;;5.38;99.88
10958;BME280;5531;42.570;23.676;2023-04-08T07:31:13;92100.41;;;5.43;99.22
10958;BME280;5531;42.570;23.676;2023-04-08T07:33:43;92105.94;;;5.32;99.70
10958;BME280;5531;42.570;23.676;2023-04-08T07:36:13;92106.41;;;5.44;100.00
10958;BME280;5531;42.570;23.676;2023-04-08T07:38:43;92107.25;;;5.53;100.00
10958;BME280;5531;42.570;23.676;2023-04-08T07:41:12;92108.84;;;5.45;100.00
10958;BME280;5531;42.570;23.676;2023-04-08T07:43:43;92106.72;;;5.57;100.00
10958;BME280;5531;42.570;23.676;2023-04-08T07:46:12;92115.34;;;5.58;100.00
10958;BME280;5531;42.570;23.676;2023-04-08T07:48:41;92113.22;;;5.61;98.20
10958;BME280;5531;42.570;23.676;2023-04-08T07:51:10;92117.81;;;5.51;98.22
10958;BME280;5531;42.570;23.676;2023-04-08T07:53:39;92118.75;;;5.50;97.98
10958;BME280;5531;42.570;23.676;2023-04-08T07:56:13;92121.84;;;5.54;98.11
10958;BME280;5531;42.570;23.676;2023-04-08T07:58:45;92121.81;;;5.70;99.32
10958;BME280;5531;42.570;23.676;2023-04-08T08:01:16;92121.78;;;5.86;99.08
10958;BME280;5531;42.570;23.676;2023-04-08T08:03:46;92128.78;;;5.94;97.50
10958;BME280;5531;42.570;23.676;2023-04-08T08:06:15;92135.94;;;6.09;98.08
10958;BME280;5531;42.570;23.676;2023-04-08T08:08:45;92128.41;;;6.22;98.23
10958;BME280;5531;42.570;23.676;2023-04-08T08:11:14;92133.59;;;6.30;96.91
10958;BME280;5531;42.570;23.676;2023-04-08T08:13:46;92144.00;;;6.30;96.17
10958;BME280;5531;42.570;23.676;2023-04-08T08:16:15;92138.47;;;6.25;97.25
10958;BME280;5531;42.570;23.676;2023-04-08T08:18:44;92129.59;;;6.11;95.19
10958;BME280;5531;42.570;23.676;2023-04-08T08:21:13;92132.94;;;6.28;95.67
10958;BME280;5531;42.570;23.676;2023-04-08T08:23:42;92131.78;;;6.39;94.68
10958;BME280;5531;42.570;23.676;2023-04-08T08:26:11;92141.69;;;6.35;94.77
10958;BME280;5531;42.570;23.676;2023-04-08T08:28:40;92142.25;;;6.06;94.32
10958;BME280;5531;42.570;23.676;2023-04-08T08:31:11;92147.28;;;6.16;96.94
10958;BME280;5531;42.570;23.676;2023-04-08T08:33:40;92147.78;;;6.03;96.15
10958;BME280;5531;42.570;23.676;2023-04-08T08:36:09;92152.16;;;5.94;96.16
10958;BME280;5531;42.570;23.676;2023-04-08T08:38:38;92147.09;;;6.26;96.22
10958;BME280;5531;42.570;23.676;2023-04-08T08:41:07;92141.16;;;6.48;95.38
10958;BME280;5531;42.570;23.676;2023-04-08T08:43:36;92145.19;;;6.59;95.62
10958;BME280;5531;42.570;23.676;2023-04-08T08:46:09;92141.00;;;6.50;94.95
10958;BME280;5531;42.570;23.676;2023-04-08T08:48:40;92143.13;;;6.46;96.20
10958;BME280;5531;42.570;23.676;2023-04-08T08:51:10;92140.69;;;6.45;94.57
10958;BME280;5531;42.570;23.676;2023-04-08T08:53:40;92139.59;;;6.39;94.47
10958;BME280;5531;42.570;23.676;2023-04-08T08:56:10;92142.97;;;6.48;93.72
10958;BME280;5531;42.570;23.676;2023-04-08T08:58:39;92151.13;;;6.76;93.95
10958;BME280;5531;42.570;23.676;2023-04-08T09:01:29;92154.22;;;6.71;95.50
10958;BME280;5531;42.570;23.676;2023-04-08T09:04:12;92153.47;;;6.94;95.38
10958;BME280;5531;42.570;23.676;2023-04-08T09:06:43;92147.84;;;7.60;95.30
10958;BME280;5531;42.570;23.676;2023-04-08T09:09:13;92157.03;;;7.94;89.53
10958;BME280;5531;42.570;23.676;2023-04-08T09:11:43;92155.88;;;7.73;88.08
10958;BME280;5531;42.570;23.676;2023-04-08T09:14:19;92154.28;;;7.87;88.33
10958;BME280;5531;42.570;23.676;2023-04-08T09:16:49;92166.03;;;8.21;88.39
10958;BME280;5531;42.570;23.676;2023-04-08T09:19:21;92164.22;;;8.44;88.20
10958;BME280;5531;42.570;23.676;2023-04-08T09:22:05;92160.22;;;8.63;86.28
10958;BME280;5531;42.570;23.676;2023-04-08T09:24:35;92172.56;;;8.70;84.07
10958;BME280;5531;42.570;23.676;2023-04-08T09:27:05;92170.22;;;8.90;82.91
10958;BME280;5531;42.570;23.676;2023-04-08T09:29:34;92168.81;;;8.57;82.72
10958;BME280;5531;42.570;23.676;2023-04-08T09:32:04;92170.91;;;8.24;82.26
10958;BME280;5531;42.570;23.676;2023-04-08T09:34:35;92181.09;;;8.34;83.74
10958;BME280;5531;42.570;23.676;2023-04-08T09:37:05;92176.75;;;8.26;84.08
10958;BME280;5531;42.570;23.676;2023-04-08T09:39:34;92171.25;;;8.36;84.20
10958;BME280;5531;42.570;23.676;2023-04-08T09:42:06;92166.63;;;8.46;84.23
10958;BME280;5531;42.570;23.676;2023-04-08T09:44:39;92173.47;;;8.47;83.68
10958;BME280;5531;42.570;23.676;2023-04-08T09:47:18;92175.31;;;8.23;81.05
10958;BME280;5531;42.570;23.676;2023-04-08T09:50:00;92171.72;;;8.24;84.75
10958;BME280;5531;42.570;23.676;2023-04-08T09:52:32;92174.28;;;8.48;81.95
10958;BME280;5531;42.570;23.676;2023-04-08T09:55:08;92168.06;;;8.49;81.33
10958;BME280;5531;42.570;23.676;2023-04-08T09:57:40;92162.41;;;8.45;81.80
10958;BME280;5531;42.570;23.676;2023-04-08T10:00:11;92167.22;;;8.93;84.67
10958;BME280;5531;42.570;23.676;2023-04-08T10:02:48;92160.19;;;9.08;81.42
10958;BME280;5531;42.570;23.676;2023-04-08T10:05:24;92158.81;;;9.12;79.02
10958;BME280;5531;42.570;23.676;2023-04-08T10:07:55;92155.00;;;8.78;79.49
10958;BME280;5531;42.570;23.676;2023-04-08T10:10:25;92139.63;;;9.05;78.23
10958;BME280;5531;42.570;23.676;2023-04-08T10:12:55;92150.22;;;9.18;78.65
10958;BME280;5531;42.570;23.676;2023-04-08T10:15:25;92146.03;;;9.03;76.42
10958;BME280;5531;42.570;23.676;2023-04-08T10:18:28;92141.53;;;9.33;79.55
10958;BME280;5531;42.570;23.676;2023-04-08T10:20:49;92143.59;;;9.59;79.46
10958;BME280;5531;42.570;23.676;2023-04-08T10:23:18;92153.25;;;9.80;77.60
10958;BME280;5531;42.570;23.676;2023-04-08T10:26:29;92140.34;;;10.07;75.84
10958;BME280;5531;42.570;23.676;2023-04-08T10:32:28;92149.47;;;10.39;76.24
10958;BME280;5531;42.570;23.676;2023-04-08T10:34:57;92134.31;;;10.63;77.46
10958;BME280;5531;42.570;23.676;2023-04-08T10:37:29;92134.56;;;10.75;74.35
10958;BME280;5531;42.570;23.676;2023-04-08T10:39:58;92135.69;;;10.59;71.14
10958;BME280;5531;42.570;23.676;2023-04-08T10:42:27;92134.50;;;10.61;70.96
10958;BME280;5531;42.570;23.676;2023-04-08T10:45:00;92123.81;;;10.56;72.66
10958;BME280;5531;42.570;23.676;2023-04-08T10:47:30;92136.22;;;10.82;72.59
10958;BME280;5531;42.570;23.676;2023-04-08T10:49:59;92133.25;;;10.99;72.35
10958;BME280;5531;42.570;23.676;2023-04-08T10:52:30;92129.16;;;10.83;68.58
10958;BME280;5531;42.570;23.676;2023-04-08T10:54:59;92133.59;;;10.82;68.49
10958;BME280;5531;42.570;23.676;2023-04-08T10:57:29;92136.91;;;11.11;71.09
10958;BME280;5531;42.570;23.676;2023-04-08T10:59:58;92129.69;;;11.13;68.61
10958;BME280;5531;42.570;23.676;2023-04-08T11:02:31;92134.97;;;10.78;68.67
10958;BME280;5531;42.570;23.676;2023-04-08T11:05:01;92131.94;;;10.33;69.79
10958;BME280;5531;42.570;23.676;2023-04-08T11:07:33;92125.66;;;10.06;70.59
10958;BME280;5531;42.570;23.676;2023-04-08T11:10:08;92131.66;;;9.71;70.74
10958;BME280;5531;42.570;23.676;2023-04-08T11:12:37;92127.44;;;9.77;72.50
10958;BME280;5531;42.570;23.676;2023-04-08T11:15:08;92117.50;;;9.44;74.26
10958;BME280;5531;42.570;23.676;2023-04-08T11:17:37;92115.88;;;9.22;74.81
10958;BME280;5531;42.570;23.676;2023-04-08T11:20:08;92119.66;;;8.97;74.17
10958;BME280;5531;42.570;23.676;2023-04-08T11:22:40;92112.66;;;8.83;76.37
10958;BME280;5531;42.570;23.676;2023-04-08T11:25:10;92099.00;;;9.03;76.83
10958;BME280;5531;42.570;23.676;2023-04-08T11:27:39;92093.88;;;8.94;75.41
10958;BME280;5531;42.570;23.676;2023-04-08T11:30:10;92096.78;;;9.21;75.71
10958;BME280;5531;42.570;23.676;2023-04-08T11:32:39;92086.31;;;8.99;74.56
10958;BME280;5531;42.570;23.676;2023-04-08T11:35:09;92067.81;;;9.01;75.54
10958;BME280;5531;42.570;23.676;2023-04-08T11:37:41;92078.38;;;9.29;75.90
10958;BME280;5531;42.570;23.676;2023-04-08T11:40:18;92067.69;;;9.52;71.74
10958;BME280;5531;42.570;23.676;2023-04-08T11:42:48;92069.00;;;9.91;72.23
10958;BME280;5531;42.570;23.676;2023-04-08T11:45:19;92066.53;;;10.18;70.14
10958;BME280;5531;42.570;23.676;2023-04-08T11:47:48;92067.53;;;10.45;71.07
10958;BME280;5531;42.570;23.676;2023-04-08T11:50:25;92067.72;;;10.92;73.24
10958;BME280;5531;42.570;23.676;2023-04-08T11:52:57;92068.59;;;11.33;68.76
10958;BME280;5531;42.570;23.676;2023-04-08T11:55:27;92060.34;;;11.43;66.87
10958;BME280;5531;42.570;23.676;2023-04-08T11:58:02;92060.16;;;11.44;65.13
10958;BME280;5531;42.570;23.676;2023-04-08T12:00:32;92050.47;;;11.51;63.15
10958;BME280;5531;42.570;23.676;2023-04-08T12:03:02;92055.69;;;11.31;64.53
10958;BME280;5531;42.570;23.676;2023-04-08T12:05:31;92053.47;;;11.22;59.28
10958;BME280;5531;42.570;23.676;2023-04-08T12:08:02;92045.41;;;11.30;63.27
10958;BME280;5531;42.570;23.676;2023-04-08T12:10:32;92052.47;;;11.36;62.16
10958;BME280;5531;42.570;23.676;2023-04-08T12:13:01;92055.09;;;11.36;63.26
10958;BME280;5531;42.570;23.676;2023-04-08T12:15:30;92063.97;;;11.35;64.52
10958;BME280;5531;42.570;23.676;2023-04-08T12:17:59;92061.06;;;11.03;63.51
10958;BME280;5531;42.570;23.676;2023-04-08T12:20:28;92057.53;;;11.37;63.81
10958;BME280;5531;42.570;23.676;2023-04-08T12:23:02;92051.06;;;11.40;63.76
10958;BME280;5531;42.570;23.676;2023-04-08T12:25:32;92049.66;;;11.71;63.92
10958;BME280;5531;42.570;23.676;2023-04-08T12:28:01;92043.22;;;11.67;61.50
10958;BME280;5531;42.570;23.676;2023-04-08T12:30:30;92041.59;;;11.46;62.03
10958;BME280;5531;42.570;23.676;2023-04-08T12:33:00;92047.44;;;11.34;63.08
10958;BME280;5531;42.570;23.676;2023-04-08T12:35:29;92039.16;;;11.58;62.45
10958;BME280;5531;42.570;23.676;2023-04-08T12:37:58;92044.00;;;11.67;61.24
10958;BME280;5531;42.570;23.676;2023-04-08T12:40:29;92041.78;;;11.71;61.70
10958;BME280;5531;42.570;23.676;2023-04-08T12:42:58;92042.56;;;11.78;61.16
10958;BME280;5531;42.570;23.676;2023-04-08T12:45:27;92036.75;;;11.43;61.34
10958;BME280;5531;42.570;23.676;2023-04-08T12:47:57;92030.06;;;11.87;63.28
10958;BME280;5531;42.570;23.676;2023-04-08T12:50:26;92029.88;;;11.88;61.28
10958;BME280;5531;42.570;23.676;2023-04-08T12:52:55;92020.09;;;12.36;63.79
10958;BME280;5531;42.570;23.676;2023-04-08T12:55:24;92014.75;;;12.56;61.71
10958;BME280;5531;42.570;23.676;2023-04-08T12:57:56;92011.84;;;12.77;62.45
10958;BME280;5531;42.570;23.676;2023-04-08T13:00:25;92008.28;;;12.58;61.37
10958;BME280;5531;42.570;23.676;2023-04-08T13:02:54;92010.56;;;12.41;63.29
10958;BME280;5531;42.570;23.676;2023-04-08T13:05:23;92003.78;;;12.72;63.33
10958;BME280;5531;42.570;23.676;2023-04-08T13:07:52;92006.50;;;12.52;62.91
10958;BME280;5531;42.570;23.676;2023-04-08T13:10:21;92011.19;;;12.43;63.33
10958;BME280;5531;42.570;23.676;2023-04-08T13:12:50;92003.63;;;11.82;63.63
10958;BME280;5531;42.570;23.676;2023-04-08T13:15:22;92001.16;;;12.14;65.99
10958;BME280;5531;42.570;23.676;2023-04-08T13:17:51;91995.88;;;12.34;63.54
10958;BME280;5531;42.570;23.676;2023-04-08T13:20:20;91994.81;;;12.35;65.53
10958;BME280;5531;42.570;23.676;2023-04-08T13:22:50;91994.00;;;12.41;62.29
10958;BME280;5531;42.570;23.676;2023-04-08T13:25:20;91990.22;;;12.23;61.82
10958;BME280;5531;42.570;23.676;2023-04-08T13:27:49;91988.38;;;12.31;63.59